sensor_id;sensor_type;location;lat;lon;timestamp;P1;durP1;ratioP1;P2;durP2;ratioP2
55067;SDS011;40965;52.368;9.712;2022-08-14T00:01:50;11.35;;;5.80;;
55067;SDS011;40965;52.368;9.712;2022-08-14T00:04:17;5.80;;;5.22;;
55067;SDS011;40965;52.368;9.712;2022-08-14T00:06:45;6.13;;;5.60;;
55067;SDS011;40965;52.368;9.712;2022-08-14T00:09:14;8.77;;;6.20;;
55067;SDS011;40965;52.368;9.712;2022-08-14T00:11:44;8.10;;;6.53;;
55067;SDS011;40965;52.368;9.712;2022-08-14T00:14:10;8.15;;;5.90;;
55067;SDS011;40965;52.368;9.712;2022-08-14T00:16:37;7.05;;;6.40;;
55067;SDS011;40965;52.368;9.712;2022-08-14T00:19:04;6.57;;;5.80;;
55067;SDS011;40965;52.368;9.712;2022-08-14T00:21:30;7.15;;;6.45;;
55067;SDS011;40965;52.368;9.712;2022-08-14T00:23:57;8.35;;;6.80;;
55067;SDS011;40965;52.368;9.712;2022-08-14T00:26:23;7.63;;;6.90;;
55067;SDS011;40965;52.368;9.712;2022-08-14T00:28:51;8.30;;;6.47;;
55067;SDS011;40965;52.368;9.712;2022-08-14T00:31:19;6.97;;;6.25;;
55067;SDS011;40965;52.368;9.712;2022-08-14T00:33:48;6.47;;;5.75;;
55067;SDS011;40965;52.368;9.712;2022-08-14T00:36:14;7.18;;;6.47;;
55067;SDS011;40965;52.368;9.712;2022-08-14T00:38:52;6.85;;;5.75;;
55067;SDS011;40965;52.368;9.712;2022-08-14T00:41:20;7.97;;;6.68;;
55067;SDS011;40965;52.368;9.712;2022-08-14T00:43:47;7.63;;;6.38;;
55067;SDS011;40965;52.368;9.712;2022-08-14T00:46:15;8.50;;;5.75;;
55067;SDS011;40965;52.368;9.712;2022-08-14T00:48:42;6.22;;;5.72;;
55067;SDS011;40965;52.368;9.712;2022-08-14T00:51:09;5.60;;;5.20;;
55067;SDS011;40965;52.368;9.712;2022-08-14T00:53:36;10.80;;;7.53;;
55067;SDS011;40965;52.368;9.712;2022-08-14T00:56:05;8.50;;;5.70;;
55067;SDS011;40965;52.368;9.712;2022-08-14T00:58:35;6.10;;;5.60;;
55067;SDS011;40965;52.368;9.712;2022-08-14T01:01:03;7.75;;;7.05;;
55067;SDS011;40965;52.368;9.712;2022-08-14T01:03:39;6.57;;;5.97;;
55067;SDS011;40965;52.368;9.712;2022-08-14T01:06:07;6.80;;;6.20;;
55067;SDS011;40965;52.368;9.712;2022-08-14T01:08:36;9.18;;;6.05;;
55067;SDS011;40965;52.368;9.712;2022-08-14T01:11:04;6.97;;;6.38;;
55067;SDS011;40965;52.368;9.712;2022-08-14T01:13:36;6.40;;;5.80;;
55067;SDS011;40965;52.368;9.712;2022-08-14T01:16:06;8.20;;;6.40;;
55067;SDS011;40965;52.368;9.712;2022-08-14T01:18:35;7.90;;;6.80;;
55067;SDS011;40965;52.368;9.712;2022-08-14T01:21:21;6.45;;;5.55;;
55067;SDS011;40965;52.368;9.712;2022-08-14T01:23:59;6.93;;;6.20;;
55067;SDS011;40965;52.368;9.712;2022-08-14T01:26:27;6.40;;;5.80;;
55067;SDS011;40965;52.368;9.712;2022-08-14T01:28:55;6.25;;;5.65;;
55067;SDS011;40965;52.368;9.712;2022-08-14T01:31:26;8.85;;;6.80;;
55067;SDS011;40965;52.368;9.712;2022-08-14T01:33:57;7.45;;;6.70;;
55067;SDS011;40965;52.368;9.712;2022-08-14T01:36:27;11.32;;;7.32;;
55067;SDS011;40965;52.368;9.712;2022-08-14T01:39:00;6.65;;;6.15;;
55067;SDS011;40965;52.368;9.712;2022-08-14T01:41:32;8.30;;;5.97;;
55067;SDS011;40965;52.368;9.712;2022-08-14T01:44:01;6.68;;;6.13;;
55067;SDS011;40965;52.368;9.712;2022-08-14T01:46:33;7.55;;;5.93;;
55067;SDS011;40965;52.368;9.712;2022-08-14T01:49:04;6.97;;;6.00;;
55067;SDS011;40965;52.368;9.712;2022-08-14T01:51:37;6.18;;;5.68;;
55067;SDS011;40965;52.368;9.712;2022-08-14T01:54:06;6.78;;;5.82;;
55067;SDS011;40965;52.368;9.712;2022-08-14T01:56:36;6.65;;;6.10;;
55067;SDS011;40965;52.368;9.712;2022-08-14T01:59:04;6.15;;;5.50;;
55067;SDS011;40965;52.368;9.712;2022-08-14T02:01:52;9.20;;;6.15;;
55067;SDS011;40965;52.368;9.712;2022-08-14T02:04:24;7.32;;;6.43;;
55067;SDS011;40965;52.368;9.712;2022-08-14T02:06:57;8.48;;;6.30;;
55067;SDS011;40965;52.368;9.712;2022-08-14T02:09:24;7.13;;;6.53;;
55067;SDS011;40965;52.368;9.712;2022-08-14T02:12:02;6.35;;;5.72;;
55067;SDS011;40965;52.368;9.712;2022-08-14T02:14:31;6.78;;;6.00;;
55067;SDS011;40965;52.368;9.712;2022-08-14T02:16:58;6.45;;;5.68;;
55067;SDS011;40965;52.368;9.712;2022-08-14T02:19:26;6.60;;;5.95;;
55067;SDS011;40965;52.368;9.712;2022-08-14T02:21:58;7.22;;;6.53;;
55067;SDS011;40965;52.368;9.712;2022-08-14T02:24:27;10.18;;;7.47;;
55067;SDS011;40965;52.368;9.712;2022-08-14T02:26:56;7.07;;;6.47;;
55067;SDS011;40965;52.368;9.712;2022-08-14T02:29:28;7.18;;;6.47;;
55067;SDS011;40965;52.368;9.712;2022-08-14T02:31:56;7.00;;;6.40;;
55067;SDS011;40965;52.368;9.712;2022-08-14T02:34:26;7.43;;;6.57;;
55067;SDS011;40965;52.368;9.712;2022-08-14T02:39:28;7.15;;;6.45;;
55067;SDS011;40965;52.368;9.712;2022-08-14T02:41:56;8.30;;;7.25;;
55067;SDS011;40965;52.368;9.712;2022-08-14T02:44:24;8.45;;;6.00;;
55067;SDS011;40965;52.368;9.712;2022-08-14T02:46:52;7.32;;;6.60;;
55067;SDS011;40965;52.368;9.712;2022-08-14T02:49:23;7.70;;;7.00;;
55067;SDS011;40965;52.368;9.712;2022-08-14T02:51:53;9.02;;;7.10;;
55067;SDS011;40965;52.368;9.712;2022-08-14T02:54:24;8.02;;;7.18;;
55067;SDS011;40965;52.368;9.712;2022-08-14T02:56:54;7.60;;;6.80;;
55067;SDS011;40965;52.368;9.712;2022-08-14T02:59:23;10.95;;;7.90;;
55067;SDS011;40965;52.368;9.712;2022-08-14T03:01:53;7.53;;;6.88;;
55067;SDS011;40965;52.368;9.712;2022-08-14T03:04:21;8.68;;;7.53;;
55067;SDS011;40965;52.368;9.712;2022-08-14T03:06:52;8.05;;;7.35;;
55067;SDS011;40965;52.368;9.712;2022-08-14T03:09:21;8.73;;;6.55;;
55067;SDS011;40965;52.368;9.712;2022-08-14T03:11:48;7.15;;;5.72;;
55067;SDS011;40965;52.368;9.712;2022-08-14T03:14:16;8.35;;;6.65;;
55067;SDS011;40965;52.368;9.712;2022-08-14T03:16:43;7.20;;;6.50;;
55067;SDS011;40965;52.368;9.712;2022-08-14T03:19:11;8.93;;;6.82;;
55067;SDS011;40965;52.368;9.712;2022-08-14T03:21:39;8.07;;;7.30;;
55067;SDS011;40965;52.368;9.712;2022-08-14T03:24:06;6.95;;;6.35;;
55067;SDS011;40965;52.368;9.712;2022-08-14T03:26:35;7.75;;;6.60;;
55067;SDS011;40965;52.368;9.712;2022-08-14T03:29:04;7.50;;;6.90;;
55067;SDS011;40965;52.368;9.712;2022-08-14T03:31:32;7.72;;;7.03;;
55067;SDS011;40965;52.368;9.712;2022-08-14T03:34:00;9.15;;;7.18;;
55067;SDS011;40965;52.368;9.712;2022-08-14T03:36:28;6.93;;;6.22;;
55067;SDS011;40965;52.368;9.712;2022-08-14T03:38:56;9.52;;;8.27;;
55067;SDS011;40965;52.368;9.712;2022-08-14T03:41:24;9.10;;;7.68;;
55067;SDS011;40965;52.368;9.712;2022-08-14T03:43:54;8.85;;;7.68;;
55067;SDS011;40965;52.368;9.712;2022-08-14T03:46:24;6.90;;;6.20;;
55067;SDS011;40965;52.368;9.712;2022-08-14T03:48:54;9.73;;;7.75;;
55067;SDS011;40965;52.368;9.712;2022-08-14T03:51:22;9.35;;;8.25;;
55067;SDS011;40965;52.368;9.712;2022-08-14T03:53:53;8.90;;;8.07;;
55067;SDS011;40965;52.368;9.712;2022-08-14T03:56:25;9.93;;;8.27;;
55067;SDS011;40965;52.368;9.712;2022-08-14T03:58:55;8.57;;;7.85;;
55067;SDS011;40965;52.368;9.712;2022-08-14T04:01:26;8.35;;;7.55;;
55067;SDS011;40965;52.368;9.712;2022-08-14T04:03:53;8.73;;;7.90;;
55067;SDS011;40965;52.368;9.712;2022-08-14T04:06:22;8.32;;;7.63;;
55067;SDS011;40965;52.368;9.712;2022-08-14T04:08:48;8.68;;;7.88;;
55067;SDS011;40965;52.368;9.712;2022-08-14T04:11:16;8.48;;;7.68;;
55067;SDS011;40965;52.368;9.712;2022-08-14T04:13:43;7.95;;;7.15;;
55067;SDS011;40965;52.368;9.712;2022-08-14T04:16:20;8.35;;;7.55;;
55067;SDS011;40965;52.368;9.712;2022-08-14T04:18:49;8.27;;;7.53;;
55067;SDS011;40965;52.368;9.712;2022-08-14T04:21:22;7.70;;;6.82;;
55067;SDS011;40965;52.368;9.712;2022-08-14T04:23:53;11.45;;;7.57;;
55067;SDS011;40965;52.368;9.712;2022-08-14T04:26:23;9.35;;;8.45;;
55067;SDS011;40965;52.368;9.712;2022-08-14T04:28:52;7.82;;;7.07;;
55067;SDS011;40965;52.368;9.712;2022-08-14T04:31:23;8.10;;;7.25;;
55067;SDS011;40965;52.368;9.712;2022-08-14T04:33:51;8.50;;;7.10;;
55067;SDS011;40965;52.368;9.712;2022-08-14T04:36:19;7.78;;;7.05;;
55067;SDS011;40965;52.368;9.712;2022-08-14T04:38:47;8.45;;;7.63;;
55067;SDS011;40965;52.368;9.712;2022-08-14T04:41:31;8.48;;;7.55;;
55067;SDS011;40965;52.368;9.712;2022-08-14T04:44:12;8.50;;;7.70;;
55067;SDS011;40965;52.368;9.712;2022-08-14T04:46:39;8.23;;;7.43;;
55067;SDS011;40965;52.368;9.712;2022-08-14T04:49:27;7.53;;;6.93;;
55067;SDS011;40965;52.368;9.712;2022-08-14T04:51:53;8.35;;;7.30;;
55067;SDS011;40965;52.368;9.712;2022-08-14T04:54:19;8.13;;;7.32;;
55067;SDS011;40965;52.368;9.712;2022-08-14T04:56:46;8.20;;;7.40;;
55067;SDS011;40965;52.368;9.712;2022-08-14T04:59:13;7.55;;;6.85;;
55067;SDS011;40965;52.368;9.712;2022-08-14T05:01:40;8.85;;;8.15;;
55067;SDS011;40965;52.368;9.712;2022-08-14T05:04:08;9.23;;;7.28;;
55067;SDS011;40965;52.368;9.712;2022-08-14T05:06:36;8.45;;;7.65;;
55067;SDS011;40965;52.368;9.712;2022-08-14T05:09:05;8.55;;;7.28;;
55067;SDS011;40965;52.368;9.712;2022-08-14T05:11:32;8.43;;;7.63;;
55067;SDS011;40965;52.368;9.712;2022-08-14T05:14:00;9.70;;;8.70;;
55067;SDS011;40965;52.368;9.712;2022-08-14T05:16:27;12.35;;;9.18;;
55067;SDS011;40965;52.368;9.712;2022-08-14T05:18:55;9.60;;;7.78;;
55067;SDS011;40965;52.368;9.712;2022-08-14T05:21:23;11.43;;;8.98;;
55067;SDS011;40965;52.368;9.712;2022-08-14T05:23:53;10.07;;;8.77;;
55067;SDS011;40965;52.368;9.712;2022-08-14T05:26:22;10.32;;;9.35;;
55067;SDS011;40965;52.368;9.712;2022-08-14T05:28:49;11.23;;;8.45;;
55067;SDS011;40965;52.368;9.712;2022-08-14T05:31:16;9.23;;;8.13;;
55067;SDS011;40965;52.368;9.712;2022-08-14T05:33:43;9.13;;;7.88;;
55067;SDS011;40965;52.368;9.712;2022-08-14T05:36:11;9.38;;;8.43;;
55067;SDS011;40965;52.368;9.712;2022-08-14T05:38:40;9.10;;;6.85;;
55067;SDS011;40965;52.368;9.712;2022-08-14T05:41:15;8.50;;;7.65;;
55067;SDS011;40965;52.368;9.712;2022-08-14T05:43:44;12.73;;;8.07;;
55067;SDS011;40965;52.368;9.712;2022-08-14T05:46:19;8.80;;;7.90;;
55067;SDS011;40965;52.368;9.712;2022-08-14T05:48:50;8.23;;;7.55;;
55067;SDS011;40965;52.368;9.712;2022-08-14T05:51:21;11.68;;;8.43;;
55067;SDS011;40965;52.368;9.712;2022-08-14T05:53:48;11.48;;;8.35;;
55067;SDS011;40965;52.368;9.712;2022-08-14T05:56:16;10.77;;;7.97;;
55067;SDS011;40965;52.368;9.712;2022-08-14T05:58:44;9.35;;;8.50;;
55067;SDS011;40965;52.368;9.712;2022-08-14T06:01:10;8.25;;;7.50;;
55067;SDS011;40965;52.368;9.712;2022-08-14T06:03:37;12.00;;;7.97;;
55067;SDS011;40965;52.368;9.712;2022-08-14T06:06:04;8.70;;;7.63;;
55067;SDS011;40965;52.368;9.712;2022-08-14T06:08:31;8.00;;;7.22;;
55067;SDS011;40965;52.368;9.712;2022-08-14T06:10:59;7.85;;;7.05;;
55067;SDS011;40965;52.368;9.712;2022-08-14T06:13:31;7.47;;;6.88;;
55067;SDS011;40965;52.368;9.712;2022-08-14T06:16:03;9.47;;;6.80;;
55067;SDS011;40965;52.368;9.712;2022-08-14T06:18:31;11.90;;;7.55;;
55067;SDS011;40965;52.368;9.712;2022-08-14T06:21:00;7.80;;;7.03;;
55067;SDS011;40965;52.368;9.712;2022-08-14T06:23:28;7.85;;;6.75;;
55067;SDS011;40965;52.368;9.712;2022-08-14T06:25:54;7.72;;;7.13;;
55067;SDS011;40965;52.368;9.712;2022-08-14T06:28:22;7.55;;;6.85;;
55067;SDS011;40965;52.368;9.712;2022-08-14T06:30:51;7.35;;;6.82;;
55067;SDS011;40965;52.368;9.712;2022-08-14T06:33:19;7.25;;;6.63;;
55067;SDS011;40965;52.368;9.712;2022-08-14T06:35:47;8.00;;;7.25;;
55067;SDS011;40965;52.368;9.712;2022-08-14T06:38:19;8.27;;;6.85;;
55067;SDS011;40965;52.368;9.712;2022-08-14T06:40:48;8.18;;;7.32;;
55067;SDS011;40965;52.368;9.712;2022-08-14T06:43:17;7.05;;;6.45;;
55067;SDS011;40965;52.368;9.712;2022-08-14T06:45:47;7.93;;;7.18;;
55067;SDS011;40965;52.368;9.712;2022-08-14T06:48:20;8.15;;;7.38;;
55067;SDS011;40965;52.368;9.712;2022-08-14T06:50:49;8.25;;;7.20;;
55067;SDS011;40965;52.368;9.712;2022-08-14T06:53:18;7.82;;;7.05;;
55067;SDS011;40965;52.368;9.712;2022-08-14T06:55:49;6.88;;;6.07;;
55067;SDS011;40965;52.368;9.712;2022-08-14T06:58:23;7.70;;;7.00;;
55067;SDS011;40965;52.368;9.712;2022-08-14T07:00:49;8.70;;;7.90;;
55067;SDS011;40965;52.368;9.712;2022-08-14T07:03:36;8.32;;;6.53;;
55067;SDS011;40965;52.368;9.712;2022-08-14T07:06:20;7.75;;;7.05;;
55067;SDS011;40965;52.368;9.712;2022-08-14T07:08:48;7.07;;;6.57;;
55067;SDS011;40965;52.368;9.712;2022-08-14T07:11:14;6.95;;;6.45;;
55067;SDS011;40965;52.368;9.712;2022-08-14T07:13:41;8.35;;;6.47;;
55067;SDS011;40965;52.368;9.712;2022-08-14T07:16:08;8.63;;;7.82;;
55067;SDS011;40965;52.368;9.712;2022-08-14T07:18:37;7.32;;;6.82;;
55067;SDS011;40965;52.368;9.712;2022-08-14T07:21:05;8.13;;;7.32;;
55067;SDS011;40965;52.368;9.712;2022-08-14T07:23:32;6.93;;;6.32;;
55067;SDS011;40965;52.368;9.712;2022-08-14T07:26:02;7.13;;;6.47;;
55067;SDS011;40965;52.368;9.712;2022-08-14T07:28:34;7.68;;;7.05;;
55067;SDS011;40965;52.368;9.712;2022-08-14T07:31:04;6.75;;;6.28;;
55067;SDS011;40965;52.368;9.712;2022-08-14T07:33:44;7.38;;;6.38;;
55067;SDS011;40965;52.368;9.712;2022-08-14T07:36:14;8.30;;;6.15;;
55067;SDS011;40965;52.368;9.712;2022-08-14T07:38:42;8.10;;;7.05;;
55067;SDS011;40965;52.368;9.712;2022-08-14T07:41:10;6.75;;;6.15;;
55067;SDS011;40965;52.368;9.712;2022-08-14T07:43:38;7.00;;;6.40;;
55067;SDS011;40965;52.368;9.712;2022-08-14T07:46:06;7.32;;;6.00;;
55067;SDS011;40965;52.368;9.712;2022-08-14T07:48:40;7.70;;;6.60;;
55067;SDS011;40965;52.368;9.712;2022-08-14T07:51:09;6.22;;;5.82;;
55067;SDS011;40965;52.368;9.712;2022-08-14T07:53:36;6.15;;;5.72;;
55067;SDS011;40965;52.368;9.712;2022-08-14T07:56:05;6.32;;;5.82;;
55067;SDS011;40965;52.368;9.712;2022-08-14T07:58:32;5.65;;;5.20;;
55067;SDS011;40965;52.368;9.712;2022-08-14T08:00:58;6.35;;;5.85;;
55067;SDS011;40965;52.368;9.712;2022-08-14T08:03:26;6.63;;;6.20;;
55067;SDS011;40965;52.368;9.712;2022-08-14T08:05:53;7.43;;;6.82;;
55067;SDS011;40965;52.368;9.712;2022-08-14T08:08:20;6.72;;;6.13;;
55067;SDS011;40965;52.368;9.712;2022-08-14T08:10:46;8.27;;;7.35;;
55067;SDS011;40965;52.368;9.712;2022-08-14T08:13:16;7.10;;;6.50;;
55067;SDS011;40965;52.368;9.712;2022-08-14T08:15:48;6.05;;;5.55;;
55067;SDS011;40965;52.368;9.712;2022-08-14T08:18:19;7.05;;;6.45;;
55067;SDS011;40965;52.368;9.712;2022-08-14T08:20:47;6.50;;;6.00;;
55067;SDS011;40965;52.368;9.712;2022-08-14T08:23:18;7.25;;;6.75;;
55067;SDS011;40965;52.368;9.712;2022-08-14T08:25:48;6.68;;;6.18;;
55067;SDS011;40965;52.368;9.712;2022-08-14T08:28:17;6.70;;;6.03;;
55067;SDS011;40965;52.368;9.712;2022-08-14T08:30:51;7.38;;;5.88;;
55067;SDS011;40965;52.368;9.712;2022-08-14T08:35:56;6.43;;;5.82;;
55067;SDS011;40965;52.368;9.712;2022-08-14T08:38:31;7.05;;;6.45;;
55067;SDS011;40965;52.368;9.712;2022-08-14T08:41:00;8.27;;;6.95;;
55067;SDS011;40965;52.368;9.712;2022-08-14T08:43:31;6.53;;;6.00;;
55067;SDS011;40965;52.368;9.712;2022-08-14T08:46:01;6.38;;;5.88;;
55067;SDS011;40965;52.368;9.712;2022-08-14T08:48:43;6.90;;;6.38;;
55067;SDS011;40965;52.368;9.712;2022-08-14T08:51:19;6.65;;;6.07;;
55067;SDS011;40965;52.368;9.712;2022-08-14T08:56:36;6.50;;;5.82;;
55067;SDS011;40965;52.368;9.712;2022-08-14T09:01:56;5.93;;;5.57;;
55067;SDS011;40965;52.368;9.712;2022-08-14T09:04:24;6.55;;;6.05;;
55067;SDS011;40965;52.368;9.712;2022-08-14T09:06:54;5.38;;;4.97;;
55067;SDS011;40965;52.368;9.712;2022-08-14T09:09:23;5.75;;;5.35;;
55067;SDS011;40965;52.368;9.712;2022-08-14T09:11:53;6.38;;;5.82;;
55067;SDS011;40965;52.368;9.712;2022-08-14T09:14:22;6.35;;;5.78;;
55067;SDS011;40965;52.368;9.712;2022-08-14T09:16:51;6.13;;;5.72;;
55067;SDS011;40965;52.368;9.712;2022-08-14T09:19:18;6.45;;;5.97;;
55067;SDS011;40965;52.368;9.712;2022-08-14T09:21:46;5.80;;;5.43;;
55067;SDS011;40965;52.368;9.712;2022-08-14T09:24:13;6.18;;;5.72;;
55067;SDS011;40965;52.368;9.712;2022-08-14T09:26:41;6.15;;;5.75;;
55067;SDS011;40965;52.368;9.712;2022-08-14T09:29:10;6.25;;;5.70;;
55067;SDS011;40965;52.368;9.712;2022-08-14T09:31:39;5.90;;;5.40;;
55067;SDS011;40965;52.368;9.712;2022-08-14T09:34:20;6.97;;;6.47;;
55067;SDS011;40965;52.368;9.712;2022-08-14T09:39:41;5.50;;;5.07;;
55067;SDS011;40965;52.368;9.712;2022-08-14T09:42:34;6.35;;;5.63;;
55067;SDS011;40965;52.368;9.712;2022-08-14T09:45:46;6.18;;;5.78;;
55067;SDS011;40965;52.368;9.712;2022-08-14T09:48:15;6.28;;;5.78;;
55067;SDS011;40965;52.368;9.712;2022-08-14T09:50:45;5.65;;;5.25;;
55067;SDS011;40965;52.368;9.712;2022-08-14T09:53:32;6.55;;;6.00;;
55067;SDS011;40965;52.368;9.712;2022-08-14T09:56:07;5.50;;;5.07;;
55067;SDS011;40965;52.368;9.712;2022-08-14T09:58:41;6.30;;;5.78;;
55067;SDS011;40965;52.368;9.712;2022-08-14T10:01:17;6.07;;;5.65;;
55067;SDS011;40965;52.368;9.712;2022-08-14T10:03:47;6.65;;;6.05;;
55067;SDS011;40965;52.368;9.712;2022-08-14T10:06:21;6.22;;;5.60;;
55067;SDS011;40965;52.368;9.712;2022-08-14T10:08:57;5.95;;;5.53;;
55067;SDS011;40965;52.368;9.712;2022-08-14T10:11:33;6.30;;;5.78;;
55067;SDS011;40965;52.368;9.712;2022-08-14T10:14:18;8.93;;;6.00;;
55067;SDS011;40965;52.368;9.712;2022-08-14T10:16:53;7.75;;;5.95;;
55067;SDS011;40965;52.368;9.712;2022-08-14T10:19:28;7.78;;;5.80;;
55067;SDS011;40965;52.368;9.712;2022-08-14T10:24:27;6.75;;;6.15;;
55067;SDS011;40965;52.368;9.712;2022-08-14T10:26:58;5.50;;;5.20;;
55067;SDS011;40965;52.368;9.712;2022-08-14T10:29:37;6.68;;;6.05;;
55067;SDS011;40965;52.368;9.712;2022-08-14T10:32:05;6.72;;;6.07;;
55067;SDS011;40965;52.368;9.712;2022-08-14T10:34:35;6.38;;;5.97;;
55067;SDS011;40965;52.368;9.712;2022-08-14T10:37:13;5.95;;;5.43;;
55067;SDS011;40965;52.368;9.712;2022-08-14T10:39:44;5.15;;;4.75;;
55067;SDS011;40965;52.368;9.712;2022-08-14T10:42:39;5.40;;;4.97;;
55067;SDS011;40965;52.368;9.712;2022-08-14T10:48:12;5.45;;;5.03;;
55067;SDS011;40965;52.368;9.712;2022-08-14T10:50:41;6.13;;;5.53;;
55067;SDS011;40965;52.368;9.712;2022-08-14T10:53:25;5.25;;;4.85;;
55067;SDS011;40965;52.368;9.712;2022-08-14T10:55:59;5.30;;;5.00;;
55067;SDS011;40965;52.368;9.712;2022-08-14T10:58:34;5.80;;;5.28;;
55067;SDS011;40965;52.368;9.712;2022-08-14T11:01:02;6.43;;;5.80;;
55067;SDS011;40965;52.368;9.712;2022-08-14T11:03:41;6.30;;;5.80;;
55067;SDS011;40965;52.368;9.712;2022-08-14T11:06:14;6.07;;;5.68;;
55067;SDS011;40965;52.368;9.712;2022-08-14T11:08:47;5.65;;;5.10;;
55067;SDS011;40965;52.368;9.712;2022-08-14T11:11:16;8.30;;;6.38;;
55067;SDS011;40965;52.368;9.712;2022-08-14T11:13:45;6.70;;;6.13;;
55067;SDS011;40965;52.368;9.712;2022-08-14T11:16:15;6.38;;;5.80;;
55067;SDS011;40965;52.368;9.712;2022-08-14T11:18:45;7.22;;;6.25;;
55067;SDS011;40965;52.368;9.712;2022-08-14T11:21:18;6.90;;;6.28;;
55067;SDS011;40965;52.368;9.712;2022-08-14T11:23:47;6.38;;;5.80;;
55067;SDS011;40965;52.368;9.712;2022-08-14T11:26:22;5.63;;;5.20;;
55067;SDS011;40965;52.368;9.712;2022-08-14T11:28:52;5.93;;;5.35;;
55067;SDS011;40965;52.368;9.712;2022-08-14T11:31:21;6.10;;;5.65;;
55067;SDS011;40965;52.368;9.712;2022-08-14T11:33:50;6.25;;;5.75;;
55067;SDS011;40965;52.368;9.712;2022-08-14T11:36:22;6.47;;;6.00;;
55067;SDS011;40965;52.368;9.712;2022-08-14T11:38:54;6.32;;;5.82;;
55067;SDS011;40965;52.368;9.712;2022-08-14T11:41:21;5.88;;;5.47;;
55067;SDS011;40965;52.368;9.712;2022-08-14T11:43:51;5.80;;;5.35;;
55067;SDS011;40965;52.368;9.712;2022-08-14T11:46:19;5.40;;;5.00;;
55067;SDS011;40965;52.368;9.712;2022-08-14T11:48:51;6.00;;;5.60;;
55067;SDS011;40965;52.368;9.712;2022-08-14T11:51:22;5.65;;;5.15;;
55067;SDS011;40965;52.368;9.712;2022-08-14T11:53:54;6.30;;;5.72;;
55067;SDS011;40965;52.368;9.712;2022-08-14T11:56:37;5.55;;;5.15;;
55067;SDS011;40965;52.368;9.712;2022-08-14T11:59:13;6.03;;;5.63;;
55067;SDS011;40965;52.368;9.712;2022-08-14T12:01:46;6.10;;;5.57;;
55067;SDS011;40965;52.368;9.712;2022-08-14T12:04:16;6.22;;;5.72;;
55067;SDS011;40965;52.368;9.712;2022-08-14T12:06:47;5.63;;;5.22;;
55067;SDS011;40965;52.368;9.712;2022-08-14T12:09:28;6.32;;;5.72;;
55067;SDS011;40965;52.368;9.712;2022-08-14T12:14:51;5.03;;;4.72;;
55067;SDS011;40965;52.368;9.712;2022-08-14T12:17:30;5.68;;;5.28;;
55067;SDS011;40965;52.368;9.712;2022-08-14T12:20:16;5.90;;;5.50;;
55067;SDS011;40965;52.368;9.712;2022-08-14T12:22:44;6.35;;;5.75;;
55067;SDS011;40965;52.368;9.712;2022-08-14T12:25:13;5.70;;;5.30;;
55067;SDS011;40965;52.368;9.712;2022-08-14T12:27:47;5.53;;;5.22;;
55067;SDS011;40965;52.368;9.712;2022-08-14T12:30:31;5.97;;;5.57;;
55067;SDS011;40965;52.368;9.712;2022-08-14T12:33:18;5.88;;;5.43;;
55067;SDS011;40965;52.368;9.712;2022-08-14T12:35:52;5.88;;;5.47;;
55067;SDS011;40965;52.368;9.712;2022-08-14T12:38:31;6.15;;;5.65;;
55067;SDS011;40965;52.368;9.712;2022-08-14T12:41:20;5.90;;;5.45;;
55067;SDS011;40965;52.368;9.712;2022-08-14T12:44:01;5.85;;;5.45;;
55067;SDS011;40965;52.368;9.712;2022-08-14T12:46:40;5.90;;;5.50;;
55067;SDS011;40965;52.368;9.712;2022-08-14T12:49:12;5.35;;;4.95;;
55067;SDS011;40965;52.368;9.712;2022-08-14T12:51:57;6.07;;;5.68;;
55067;SDS011;40965;52.368;9.712;2022-08-14T12:54:28;5.70;;;5.40;;
55067;SDS011;40965;52.368;9.712;2022-08-14T12:57:31;5.55;;;5.25;;
55067;SDS011;40965;52.368;9.712;2022-08-14T13:02:43;6.35;;;5.80;;
55067;SDS011;40965;52.368;9.712;2022-08-14T13:05:14;6.28;;;5.68;;
55067;SDS011;40965;52.368;9.712;2022-08-14T13:07:41;5.35;;;4.88;;
55067;SDS011;40965;52.368;9.712;2022-08-14T13:10:14;5.85;;;5.55;;
55067;SDS011;40965;52.368;9.712;2022-08-14T13:12:41;5.30;;;5.00;;
55067;SDS011;40965;52.368;9.712;2022-08-14T13:15:10;6.18;;;5.68;;
55067;SDS011;40965;52.368;9.712;2022-08-14T13:17:40;6.00;;;5.57;;
55067;SDS011;40965;52.368;9.712;2022-08-14T13:20:17;5.80;;;5.40;;
55067;SDS011;40965;52.368;9.712;2022-08-14T13:22:48;5.40;;;4.85;;
55067;SDS011;40965;52.368;9.712;2022-08-14T13:25:26;5.97;;;5.57;;
55067;SDS011;40965;52.368;9.712;2022-08-14T13:28:52;5.85;;;5.32;;
55067;SDS011;40965;52.368;9.712;2022-08-14T13:31:58;7.10;;;6.63;;
55067;SDS011;40965;52.368;9.712;2022-08-14T13:34:27;5.72;;;5.30;;
55067;SDS011;40965;52.368;9.712;2022-08-14T13:36:59;6.50;;;5.97;;
55067;SDS011;40965;52.368;9.712;2022-08-14T13:39:28;5.85;;;5.55;;
55067;SDS011;40965;52.368;9.712;2022-08-14T13:41:58;5.75;;;5.35;;
55067;SDS011;40965;52.368;9.712;2022-08-14T13:44:29;5.72;;;5.32;;
55067;SDS011;40965;52.368;9.712;2022-08-14T13:47:03;5.55;;;5.25;;
55067;SDS011;40965;52.368;9.712;2022-08-14T13:49:31;7.22;;;5.05;;
55067;SDS011;40965;52.368;9.712;2022-08-14T13:52:01;6.10;;;5.60;;
55067;SDS011;40965;52.368;9.712;2022-08-14T13:54:35;5.95;;;5.65;;
55067;SDS011;40965;52.368;9.712;2022-08-14T13:57:04;6.45;;;5.95;;
55067;SDS011;40965;52.368;9.712;2022-08-14T13:59:37;5.88;;;5.38;;
55067;SDS011;40965;52.368;9.712;2022-08-14T14:02:12;6.18;;;5.60;;
55067;SDS011;40965;52.368;9.712;2022-08-14T14:04:47;6.30;;;5.82;;
55067;SDS011;40965;52.368;9.712;2022-08-14T14:07:19;6.55;;;6.05;;
55067;SDS011;40965;52.368;9.712;2022-08-14T14:09:47;6.20;;;5.70;;
55067;SDS011;40965;52.368;9.712;2022-08-14T14:12:15;6.03;;;5.38;;
55067;SDS011;40965;52.368;9.712;2022-08-14T14:14:43;6.65;;;5.90;;
55067;SDS011;40965;52.368;9.712;2022-08-14T14:17:18;6.43;;;5.97;;
55067;SDS011;40965;52.368;9.712;2022-08-14T14:19:49;5.88;;;5.47;;
55067;SDS011;40965;52.368;9.712;2022-08-14T14:22:22;6.93;;;6.45;;
55067;SDS011;40965;52.368;9.712;2022-08-14T14:24:52;7.53;;;6.43;;
55067;SDS011;40965;52.368;9.712;2022-08-14T14:27:20;7.03;;;6.43;;
55067;SDS011;40965;52.368;9.712;2022-08-14T14:30:04;6.43;;;5.80;;
55067;SDS011;40965;52.368;9.712;2022-08-14T14:32:33;6.68;;;6.28;;
55067;SDS011;40965;52.368;9.712;2022-08-14T14:35:06;7.20;;;6.50;;
55067;SDS011;40965;52.368;9.712;2022-08-14T14:37:44;5.93;;;5.53;;
55067;SDS011;40965;52.368;9.712;2022-08-14T14:40:12;6.53;;;5.93;;
55067;SDS011;40965;52.368;9.712;2022-08-14T14:42:49;6.47;;;5.97;;
55067;SDS011;40965;52.368;9.712;2022-08-14T14:45:18;6.07;;;5.57;;
55067;SDS011;40965;52.368;9.712;2022-08-14T14:47:49;6.20;;;5.78;;
55067;SDS011;40965;52.368;9.712;2022-08-14T14:50:21;7.10;;;6.40;;
55067;SDS011;40965;52.368;9.712;2022-08-14T14:52:49;6.93;;;6.38;;
55067;SDS011;40965;52.368;9.712;2022-08-14T14:55:20;6.20;;;5.80;;
55067;SDS011;40965;52.368;9.712;2022-08-14T14:57:49;6.25;;;5.78;;
55067;SDS011;40965;52.368;9.712;2022-08-14T15:00:18;6.50;;;5.90;;
55067;SDS011;40965;52.368;9.712;2022-08-14T15:02:50;6.60;;;6.10;;
55067;SDS011;40965;52.368;9.712;2022-08-14T15:05:21;7.00;;;6.43;;
55067;SDS011;40965;52.368;9.712;2022-08-14T15:07:49;6.57;;;5.97;;
55067;SDS011;40965;52.368;9.712;2022-08-14T15:10:19;6.10;;;5.60;;
55067;SDS011;40965;52.368;9.712;2022-08-14T15:12:51;6.57;;;6.05;;
55067;SDS011;40965;52.368;9.712;2022-08-14T15:15:18;6.28;;;5.78;;
55067;SDS011;40965;52.368;9.712;2022-08-14T15:17:51;7.30;;;6.43;;
55067;SDS011;40965;52.368;9.712;2022-08-14T15:20:18;6.10;;;5.55;;
55067;SDS011;40965;52.368;9.712;2022-08-14T15:22:46;7.40;;;6.80;;
55067;SDS011;40965;52.368;9.712;2022-08-14T15:25:12;6.05;;;5.55;;
55067;SDS011;40965;52.368;9.712;2022-08-14T15:27:39;6.85;;;6.32;;
55067;SDS011;40965;52.368;9.712;2022-08-14T15:30:08;6.90;;;6.35;;
55067;SDS011;40965;52.368;9.712;2022-08-14T15:32:38;7.25;;;6.55;;
55067;SDS011;40965;52.368;9.712;2022-08-14T15:35:05;6.88;;;6.38;;
55067;SDS011;40965;52.368;9.712;2022-08-14T15:37:32;7.63;;;5.90;;